Hovedside
METAR-TAF:

METAR-TAF

Lufthavner :

Bangui, Den sentralafrikanske republikk

Bangui M'Poko internasjonale lufthavn

breddegrad: 04-24N, lengdegrad: 018-31E, høyde over havet: 365 m

Gjeldene værobservasjon

Denne rapporten ble laget for 44 minutter siden, klokken 21:00 UTC
Vind 2 kt fra skiftende retning
Temperatur 20°C
Luftfuktighet 78%
Trykk 1010 hPa
Sikt: 8000 m

METAR: FEFF 182100Z VRB02KT 8000 NSC 20/16 Q1010 NOSIG

Tid: 22:44 (21:44 UTC)

Varsel

Denne rapporten ble laget for 10 timer og 44 minutter siden, klokken 11:00 UTC
Varsel gyldig fra 18. klokken 12 UTC til 19. klokken 18 UTC
Vind 6 kt fra Nordøst
Sikt 10 km eller mer
ingen skyer under 1500 m og ingen bygeskyer
Blir
fra 18. klokken 15 UTC til 18. klokken 17 UTC
Sikt: 4000 m
Fra 18. klokken 2100 UTC
Vind kt fra Nord
Sikt 10 km eller mer
ingen skyer under 1500 m og ingen bygeskyer

TAF: FEFF 181100Z 1812/1918 04006KT CAVOK BECMG 1815/1817 4000 HZFU FM182100 00000KT CAVOK

Værobservasjoner og værvarsel for over 4000 flyplasser (METAR- og TAF-rapporter).

Tilgjengelige stasjoner er representert av de røde og gule prikkene på kartet.

Hold musepekeren over prikken for å se navnet på stasjonen.

Klikk så for å se værobservasjoner og -varsler.

For å forandre kartet kan du klikke på den grønne knappen med svart kryss for å zoome inn, på den grønne knappen med strek for å zoome ut, eller på de grønne pilene for å se tilstøtende kart.


METAR-TAF: